sensor_id;sensor_type;location;lat;lon;timestamp;P1;durP1;ratioP1;P2;durP2;ratioP2
20906;SDS011;10613;50.966;5.814;2022-11-20T00:02:59;5.00;;;5.00;;
20906;SDS011;10613;50.966;5.814;2022-11-20T00:07:06;7.00;;;7.00;;
20906;SDS011;10613;50.966;5.814;2022-11-20T00:11:21;6.00;;;6.00;;
20906;SDS011;10613;50.966;5.814;2022-11-20T00:15:28;3.75;;;3.75;;
20906;SDS011;10613;50.966;5.814;2022-11-20T00:19:35;6.50;;;6.50;;
20906;SDS011;10613;50.966;5.814;2022-11-20T00:23:42;3.00;;;3.00;;
20906;SDS011;10613;50.966;5.814;2022-11-20T00:27:50;4.00;;;4.00;;
20906;SDS011;10613;50.966;5.814;2022-11-20T00:31:56;4.00;;;4.00;;
20906;SDS011;10613;50.966;5.814;2022-11-20T00:36:07;7.00;;;6.00;;
20906;SDS011;10613;50.966;5.814;2022-11-20T00:40:14;3.00;;;3.00;;
20906;SDS011;10613;50.966;5.814;2022-11-20T00:44:21;4.00;;;4.00;;
20906;SDS011;10613;50.966;5.814;2022-11-20T00:48:29;6.00;;;6.00;;
20906;SDS011;10613;50.966;5.814;2022-11-20T00:52:35;3.50;;;3.50;;
20906;SDS011;10613;50.966;5.814;2022-11-20T00:56:42;9.00;;;9.00;;
20906;SDS011;10613;50.966;5.814;2022-11-20T01:00:49;6.00;;;6.00;;
20906;SDS011;10613;50.966;5.814;2022-11-20T01:04:56;6.75;;;6.75;;
20906;SDS011;10613;50.966;5.814;2022-11-20T01:09:09;3.25;;;3.25;;
20906;SDS011;10613;50.966;5.814;2022-11-20T01:13:23;3.25;;;3.25;;
20906;SDS011;10613;50.966;5.814;2022-11-20T01:17:45;7.00;;;7.00;;
20906;SDS011;10613;50.966;5.814;2022-11-20T01:21:53;4.50;;;4.50;;
20906;SDS011;10613;50.966;5.814;2022-11-20T01:26:04;4.00;;;4.00;;
20906;SDS011;10613;50.966;5.814;2022-11-20T01:30:11;9.50;;;9.50;;
20906;SDS011;10613;50.966;5.814;2022-11-20T01:34:18;12.75;;;12.75;;
20906;SDS011;10613;50.966;5.814;2022-11-20T01:38:25;6.75;;;6.75;;
20906;SDS011;10613;50.966;5.814;2022-11-20T01:42:44;5.50;;;5.50;;
20906;SDS011;10613;50.966;5.814;2022-11-20T01:47:09;7.50;;;7.50;;
20906;SDS011;10613;50.966;5.814;2022-11-20T01:51:32;7.50;;;7.50;;
20906;SDS011;10613;50.966;5.814;2022-11-20T01:55:41;5.50;;;5.50;;
20906;SDS011;10613;50.966;5.814;2022-11-20T01:59:55;7.75;;;7.75;;
20906;SDS011;10613;50.966;5.814;2022-11-20T02:04:12;13.50;;;13.50;;
20906;SDS011;10613;50.966;5.814;2022-11-20T02:08:19;6.00;;;6.00;;
20906;SDS011;10613;50.966;5.814;2022-11-20T02:12:34;6.50;;;6.50;;
20906;SDS011;10613;50.966;5.814;2022-11-20T02:16:59;4.25;;;4.25;;
20906;SDS011;10613;50.966;5.814;2022-11-20T02:21:09;17.00;;;17.00;;
20906;SDS011;10613;50.966;5.814;2022-11-20T02:25:20;13.50;;;12.00;;
20906;SDS011;10613;50.966;5.814;2022-11-20T02:29:31;15.00;;;15.00;;
20906;SDS011;10613;50.966;5.814;2022-11-20T02:33:38;14.00;;;13.50;;
20906;SDS011;10613;50.966;5.814;2022-11-20T02:37:50;18.75;;;18.75;;
20906;SDS011;10613;50.966;5.814;2022-11-20T02:41:58;16.00;;;13.25;;
20906;SDS011;10613;50.966;5.814;2022-11-20T02:46:07;20.50;;;20.50;;
20906;SDS011;10613;50.966;5.814;2022-11-20T02:50:14;14.00;;;14.00;;
20906;SDS011;10613;50.966;5.814;2022-11-20T02:54:21;19.00;;;18.25;;
20906;SDS011;10613;50.966;5.814;2022-11-20T02:58:28;14.25;;;14.25;;
20906;SDS011;10613;50.966;5.814;2022-11-20T03:02:35;18.00;;;14.75;;
20906;SDS011;10613;50.966;5.814;2022-11-20T03:06:42;20.00;;;18.50;;
20906;SDS011;10613;50.966;5.814;2022-11-20T03:10:55;16.75;;;15.00;;
20906;SDS011;10613;50.966;5.814;2022-11-20T03:15:03;18.00;;;15.00;;
20906;SDS011;10613;50.966;5.814;2022-11-20T03:19:10;15.00;;;15.00;;
20906;SDS011;10613;50.966;5.814;2022-11-20T03:23:18;13.25;;;12.25;;
20906;SDS011;10613;50.966;5.814;2022-11-20T03:27:25;15.75;;;14.25;;
20906;SDS011;10613;50.966;5.814;2022-11-20T03:31:36;15.50;;;11.00;;
20906;SDS011;10613;50.966;5.814;2022-11-20T03:35:43;18.00;;;15.75;;
20906;SDS011;10613;50.966;5.814;2022-11-20T03:39:50;15.25;;;15.00;;
20906;SDS011;10613;50.966;5.814;2022-11-20T03:43:57;13.25;;;11.00;;
20906;SDS011;10613;50.966;5.814;2022-11-20T03:48:05;14.75;;;11.50;;
20906;SDS011;10613;50.966;5.814;2022-11-20T03:52:12;20.00;;;18.00;;
20906;SDS011;10613;50.966;5.814;2022-11-20T03:56:19;15.00;;;11.00;;
20906;SDS011;10613;50.966;5.814;2022-11-20T04:00:26;17.00;;;16.75;;
20906;SDS011;10613;50.966;5.814;2022-11-20T04:04:33;11.50;;;11.50;;
20906;SDS011;10613;50.966;5.814;2022-11-20T04:08:40;14.00;;;14.00;;
20906;SDS011;10613;50.966;5.814;2022-11-20T04:12:54;11.50;;;11.25;;
20906;SDS011;10613;50.966;5.814;2022-11-20T04:17:01;20.00;;;17.50;;
20906;SDS011;10613;50.966;5.814;2022-11-20T04:21:08;10.00;;;10.00;;
20906;SDS011;10613;50.966;5.814;2022-11-20T04:25:15;13.00;;;13.00;;
20906;SDS011;10613;50.966;5.814;2022-11-20T04:29:22;20.25;;;19.00;;
20906;SDS011;10613;50.966;5.814;2022-11-20T04:33:29;17.75;;;17.75;;
20906;SDS011;10613;50.966;5.814;2022-11-20T04:37:36;15.00;;;15.00;;
20906;SDS011;10613;50.966;5.814;2022-11-20T04:41:43;16.25;;;16.25;;
20906;SDS011;10613;50.966;5.814;2022-11-20T04:45:50;21.00;;;19.00;;
20906;SDS011;10613;50.966;5.814;2022-11-20T04:49:58;14.00;;;14.00;;
20906;SDS011;10613;50.966;5.814;2022-11-20T04:54:05;15.50;;;14.50;;
20906;SDS011;10613;50.966;5.814;2022-11-20T04:58:12;17.50;;;17.50;;
20906;SDS011;10613;50.966;5.814;2022-11-20T05:02:19;17.75;;;17.75;;
20906;SDS011;10613;50.966;5.814;2022-11-20T05:06:26;16.00;;;14.25;;
20906;SDS011;10613;50.966;5.814;2022-11-20T05:10:40;13.00;;;13.00;;
20906;SDS011;10613;50.966;5.814;2022-11-20T05:14:47;14.50;;;13.00;;
20906;SDS011;10613;50.966;5.814;2022-11-20T05:18:54;13.00;;;13.00;;
20906;SDS011;10613;50.966;5.814;2022-11-20T05:23:01;14.00;;;14.00;;
20906;SDS011;10613;50.966;5.814;2022-11-20T05:27:08;15.00;;;15.00;;
20906;SDS011;10613;50.966;5.814;2022-11-20T05:31:17;18.00;;;17.25;;
20906;SDS011;10613;50.966;5.814;2022-11-20T05:35:24;13.50;;;13.50;;
20906;SDS011;10613;50.966;5.814;2022-11-20T05:39:31;15.00;;;12.50;;
20906;SDS011;10613;50.966;5.814;2022-11-20T05:43:38;12.50;;;12.00;;
20906;SDS011;10613;50.966;5.814;2022-11-20T05:47:46;22.25;;;13.50;;
20906;SDS011;10613;50.966;5.814;2022-11-20T05:51:53;22.75;;;22.75;;
20906;SDS011;10613;50.966;5.814;2022-11-20T05:56:04;15.75;;;13.00;;
20906;SDS011;10613;50.966;5.814;2022-11-20T06:00:12;27.00;;;25.75;;
20906;SDS011;10613;50.966;5.814;2022-11-20T06:04:19;20.75;;;19.75;;
20906;SDS011;10613;50.966;5.814;2022-11-20T06:08:26;20.50;;;19.00;;
20906;SDS011;10613;50.966;5.814;2022-11-20T06:12:33;15.50;;;14.50;;
20906;SDS011;10613;50.966;5.814;2022-11-20T06:16:40;21.75;;;20.75;;
20906;SDS011;10613;50.966;5.814;2022-11-20T06:20:47;21.25;;;20.50;;
20906;SDS011;10613;50.966;5.814;2022-11-20T06:24:54;15.50;;;15.50;;
20906;SDS011;10613;50.966;5.814;2022-11-20T06:29:01;19.00;;;16.75;;
20906;SDS011;10613;50.966;5.814;2022-11-20T06:33:08;14.75;;;14.50;;
20906;SDS011;10613;50.966;5.814;2022-11-20T06:37:15;24.25;;;23.50;;
20906;SDS011;10613;50.966;5.814;2022-11-20T06:41:23;15.00;;;13.00;;
20906;SDS011;10613;50.966;5.814;2022-11-20T06:45:30;17.00;;;17.00;;
20906;SDS011;10613;50.966;5.814;2022-11-20T06:49:37;24.50;;;18.00;;
20906;SDS011;10613;50.966;5.814;2022-11-20T06:53:45;16.50;;;16.50;;
20906;SDS011;10613;50.966;5.814;2022-11-20T06:57:52;20.50;;;18.50;;
20906;SDS011;10613;50.966;5.814;2022-11-20T07:01:59;13.00;;;11.75;;
20906;SDS011;10613;50.966;5.814;2022-11-20T07:06:06;19.25;;;16.25;;
20906;SDS011;10613;50.966;5.814;2022-11-20T07:10:20;18.00;;;18.00;;
20906;SDS011;10613;50.966;5.814;2022-11-20T07:14:34;21.25;;;17.75;;
20906;SDS011;10613;50.966;5.814;2022-11-20T07:18:41;14.25;;;14.25;;
20906;SDS011;10613;50.966;5.814;2022-11-20T07:22:52;18.75;;;17.00;;
20906;SDS011;10613;50.966;5.814;2022-11-20T07:26:59;15.00;;;15.00;;
20906;SDS011;10613;50.966;5.814;2022-11-20T07:31:06;17.50;;;17.00;;
20906;SDS011;10613;50.966;5.814;2022-11-20T07:35:14;17.75;;;17.00;;
20906;SDS011;10613;50.966;5.814;2022-11-20T07:39:21;19.00;;;18.75;;
20906;SDS011;10613;50.966;5.814;2022-11-20T07:43:28;14.00;;;13.50;;
20906;SDS011;10613;50.966;5.814;2022-11-20T07:47:36;14.50;;;14.50;;
20906;SDS011;10613;50.966;5.814;2022-11-20T07:51:43;14.50;;;13.50;;
20906;SDS011;10613;50.966;5.814;2022-11-20T07:55:50;17.00;;;17.00;;
20906;SDS011;10613;50.966;5.814;2022-11-20T07:59:59;16.25;;;16.25;;
20906;SDS011;10613;50.966;5.814;2022-11-20T08:04:12;17.25;;;17.25;;
20906;SDS011;10613;50.966;5.814;2022-11-20T08:08:19;13.00;;;10.25;;
20906;SDS011;10613;50.966;5.814;2022-11-20T08:12:33;14.50;;;14.50;;
20906;SDS011;10613;50.966;5.814;2022-11-20T08:16:58;16.00;;;12.50;;
20906;SDS011;10613;50.966;5.814;2022-11-20T08:21:06;18.50;;;18.00;;
20906;SDS011;10613;50.966;5.814;2022-11-20T08:25:13;24.75;;;23.25;;
20906;SDS011;10613;50.966;5.814;2022-11-20T08:29:20;15.00;;;15.00;;
20906;SDS011;10613;50.966;5.814;2022-11-20T08:33:27;16.50;;;16.50;;
20906;SDS011;10613;50.966;5.814;2022-11-20T08:37:34;16.25;;;16.25;;
20906;SDS011;10613;50.966;5.814;2022-11-20T08:41:43;26.50;;;25.00;;
20906;SDS011;10613;50.966;5.814;2022-11-20T08:45:50;12.00;;;12.00;;
20906;SDS011;10613;50.966;5.814;2022-11-20T08:50:00;16.00;;;16.00;;
20906;SDS011;10613;50.966;5.814;2022-11-20T08:54:06;14.75;;;12.75;;
20906;SDS011;10613;50.966;5.814;2022-11-20T08:58:13;26.50;;;26.50;;
20906;SDS011;10613;50.966;5.814;2022-11-20T09:02:20;14.50;;;11.00;;
20906;SDS011;10613;50.966;5.814;2022-11-20T09:06:27;15.75;;;15.75;;
20906;SDS011;10613;50.966;5.814;2022-11-20T09:10:44;20.75;;;19.00;;
20906;SDS011;10613;50.966;5.814;2022-11-20T09:14:51;14.25;;;12.00;;
20906;SDS011;10613;50.966;5.814;2022-11-20T09:18:58;17.00;;;15.00;;
20906;SDS011;10613;50.966;5.814;2022-11-20T09:23:05;22.25;;;22.25;;
20906;SDS011;10613;50.966;5.814;2022-11-20T09:27:12;15.00;;;11.50;;
20906;SDS011;10613;50.966;5.814;2022-11-20T09:31:22;18.25;;;17.50;;
20906;SDS011;10613;50.966;5.814;2022-11-20T09:35:29;12.50;;;11.50;;
20906;SDS011;10613;50.966;5.814;2022-11-20T09:39:36;16.00;;;16.00;;
20906;SDS011;10613;50.966;5.814;2022-11-20T09:43:58;19.75;;;18.00;;
20906;SDS011;10613;50.966;5.814;2022-11-20T09:48:16;16.25;;;16.25;;
20906;SDS011;10613;50.966;5.814;2022-11-20T09:56:50;6.50;;;6.50;;
20906;SDS011;10613;50.966;5.814;2022-11-20T10:01:03;8.50;;;8.00;;
20906;SDS011;10613;50.966;5.814;2022-11-20T10:05:27;7.50;;;6.00;;
20906;SDS011;10613;50.966;5.814;2022-11-20T10:09:43;9.00;;;9.00;;
20906;SDS011;10613;50.966;5.814;2022-11-20T10:31:03;6.00;;;6.00;;
20906;SDS011;10613;50.966;5.814;2022-11-20T10:39:22;8.00;;;6.00;;
20906;SDS011;10613;50.966;5.814;2022-11-20T10:43:32;4.00;;;4.00;;
20906;SDS011;10613;50.966;5.814;2022-11-20T10:47:39;4.00;;;4.00;;
20906;SDS011;10613;50.966;5.814;2022-11-20T10:51:53;4.00;;;4.00;;
20906;SDS011;10613;50.966;5.814;2022-11-20T10:56:09;4.00;;;4.00;;
20906;SDS011;10613;50.966;5.814;2022-11-20T11:00:20;5.50;;;5.50;;
20906;SDS011;10613;50.966;5.814;2022-11-20T11:04:38;3.00;;;3.00;;
20906;SDS011;10613;50.966;5.814;2022-11-20T11:08:51;4.00;;;4.00;;
20906;SDS011;10613;50.966;5.814;2022-11-20T11:13:06;6.00;;;6.00;;
20906;SDS011;10613;50.966;5.814;2022-11-20T11:17:32;5.50;;;5.50;;
20906;SDS011;10613;50.966;5.814;2022-11-20T11:21:45;4.00;;;4.00;;
20906;SDS011;10613;50.966;5.814;2022-11-20T11:25:58;6.00;;;6.00;;
20906;SDS011;10613;50.966;5.814;2022-11-20T11:30:15;10.00;;;10.00;;
20906;SDS011;10613;50.966;5.814;2022-11-20T11:34:22;4.00;;;4.00;;
20906;SDS011;10613;50.966;5.814;2022-11-20T11:42:41;6.00;;;6.00;;
20906;SDS011;10613;50.966;5.814;2022-11-20T11:46:52;12.00;;;9.25;;
20906;SDS011;10613;50.966;5.814;2022-11-20T11:51:00;6.75;;;6.00;;
20906;SDS011;10613;50.966;5.814;2022-11-20T11:55:07;6.75;;;6.75;;
20906;SDS011;10613;50.966;5.814;2022-11-20T11:59:23;3.50;;;3.50;;
20906;SDS011;10613;50.966;5.814;2022-11-20T12:03:37;6.00;;;6.00;;
20906;SDS011;10613;50.966;5.814;2022-11-20T12:12:10;3.25;;;3.25;;
20906;SDS011;10613;50.966;5.814;2022-11-20T12:16:26;7.50;;;7.50;;
20906;SDS011;10613;50.966;5.814;2022-11-20T12:20:35;3.50;;;3.50;;
20906;SDS011;10613;50.966;5.814;2022-11-20T12:29:32;9.50;;;9.50;;
20906;SDS011;10613;50.966;5.814;2022-11-20T12:33:50;4.50;;;4.50;;
20906;SDS011;10613;50.966;5.814;2022-11-20T12:47:00;5.50;;;5.50;;
20906;SDS011;10613;50.966;5.814;2022-11-20T13:03:42;4.00;;;4.00;;
20906;SDS011;10613;50.966;5.814;2022-11-20T13:07:51;5.00;;;5.00;;
20906;SDS011;10613;50.966;5.814;2022-11-20T13:20:41;5.50;;;5.50;;
20906;SDS011;10613;50.966;5.814;2022-11-20T13:24:50;4.00;;;4.00;;
20906;SDS011;10613;50.966;5.814;2022-11-20T13:29:02;6.25;;;6.00;;
20906;SDS011;10613;50.966;5.814;2022-11-20T13:37:31;4.00;;;4.00;;
20906;SDS011;10613;50.966;5.814;2022-11-20T13:41:57;6.00;;;6.00;;
20906;SDS011;10613;50.966;5.814;2022-11-20T13:46:05;7.00;;;7.00;;
20906;SDS011;10613;50.966;5.814;2022-11-20T13:50:21;6.75;;;6.75;;
20906;SDS011;10613;50.966;5.814;2022-11-20T13:54:42;4.50;;;3.75;;
20906;SDS011;10613;50.966;5.814;2022-11-20T14:03:26;5.00;;;5.00;;
20906;SDS011;10613;50.966;5.814;2022-11-20T14:07:37;4.00;;;4.00;;
20906;SDS011;10613;50.966;5.814;2022-11-20T14:11:51;5.25;;;5.25;;
20906;SDS011;10613;50.966;5.814;2022-11-20T14:15:58;6.00;;;6.00;;
20906;SDS011;10613;50.966;5.814;2022-11-20T14:20:06;7.00;;;7.00;;
20906;SDS011;10613;50.966;5.814;2022-11-20T14:24:21;4.00;;;4.00;;
20906;SDS011;10613;50.966;5.814;2022-11-20T14:28:29;5.00;;;4.00;;
20906;SDS011;10613;50.966;5.814;2022-11-20T14:32:36;7.00;;;7.00;;
20906;SDS011;10613;50.966;5.814;2022-11-20T14:36:43;4.00;;;4.00;;
20906;SDS011;10613;50.966;5.814;2022-11-20T14:40:50;7.75;;;7.75;;
20906;SDS011;10613;50.966;5.814;2022-11-20T14:44:58;9.00;;;9.00;;
20906;SDS011;10613;50.966;5.814;2022-11-20T14:49:05;6.50;;;6.50;;
20906;SDS011;10613;50.966;5.814;2022-11-20T14:53:12;9.00;;;9.00;;
20906;SDS011;10613;50.966;5.814;2022-11-20T15:01:35;7.00;;;7.00;;
20906;SDS011;10613;50.966;5.814;2022-11-20T15:05:46;5.50;;;5.50;;
20906;SDS011;10613;50.966;5.814;2022-11-20T15:10:27;7.00;;;7.00;;
20906;SDS011;10613;50.966;5.814;2022-11-20T15:14:28;4.50;;;4.50;;
20906;SDS011;10613;50.966;5.814;2022-11-20T15:18:42;4.00;;;4.00;;
20906;SDS011;10613;50.966;5.814;2022-11-20T15:22:49;6.00;;;6.00;;
20906;SDS011;10613;50.966;5.814;2022-11-20T15:26:56;6.75;;;6.75;;
20906;SDS011;10613;50.966;5.814;2022-11-20T15:31:03;6.00;;;6.00;;
20906;SDS011;10613;50.966;5.814;2022-11-20T15:35:10;6.00;;;6.00;;
20906;SDS011;10613;50.966;5.814;2022-11-20T15:39:17;7.00;;;7.00;;
20906;SDS011;10613;50.966;5.814;2022-11-20T15:43:24;6.00;;;6.00;;
20906;SDS011;10613;50.966;5.814;2022-11-20T15:47:32;7.50;;;7.50;;
20906;SDS011;10613;50.966;5.814;2022-11-20T15:51:41;7.50;;;7.50;;
20906;SDS011;10613;50.966;5.814;2022-11-20T15:55:48;7.00;;;7.00;;
20906;SDS011;10613;50.966;5.814;2022-11-20T15:59:55;6.00;;;6.00;;
20906;SDS011;10613;50.966;5.814;2022-11-20T16:04:11;6.00;;;6.00;;
20906;SDS011;10613;50.966;5.814;2022-11-20T16:08:18;5.50;;;5.50;;
20906;SDS011;10613;50.966;5.814;2022-11-20T16:12:32;6.00;;;6.00;;
20906;SDS011;10613;50.966;5.814;2022-11-20T16:17:04;6.50;;;6.50;;
20906;SDS011;10613;50.966;5.814;2022-11-20T16:21:11;4.50;;;4.50;;
20906;SDS011;10613;50.966;5.814;2022-11-20T16:25:19;6.00;;;6.00;;
20906;SDS011;10613;50.966;5.814;2022-11-20T16:29:26;7.50;;;7.50;;
20906;SDS011;10613;50.966;5.814;2022-11-20T16:33:33;6.00;;;6.00;;
20906;SDS011;10613;50.966;5.814;2022-11-20T16:37:40;6.50;;;6.50;;
20906;SDS011;10613;50.966;5.814;2022-11-20T16:41:48;5.50;;;5.50;;
20906;SDS011;10613;50.966;5.814;2022-11-20T16:45:55;6.25;;;6.25;;
20906;SDS011;10613;50.966;5.814;2022-11-20T16:50:03;6.50;;;6.50;;
20906;SDS011;10613;50.966;5.814;2022-11-20T16:54:10;6.75;;;6.75;;
20906;SDS011;10613;50.966;5.814;2022-11-20T16:58:16;6.75;;;6.75;;
20906;SDS011;10613;50.966;5.814;2022-11-20T17:02:23;6.00;;;6.00;;
20906;SDS011;10613;50.966;5.814;2022-11-20T17:06:33;3.00;;;3.00;;
20906;SDS011;10613;50.966;5.814;2022-11-20T17:10:46;7.00;;;7.00;;
20906;SDS011;10613;50.966;5.814;2022-11-20T17:15:00;5.50;;;5.50;;
20906;SDS011;10613;50.966;5.814;2022-11-20T17:19:07;4.00;;;4.00;;
20906;SDS011;10613;50.966;5.814;2022-11-20T17:23:14;6.00;;;6.00;;
20906;SDS011;10613;50.966;5.814;2022-11-20T17:27:21;6.00;;;6.00;;
20906;SDS011;10613;50.966;5.814;2022-11-20T17:31:29;4.50;;;4.50;;
20906;SDS011;10613;50.966;5.814;2022-11-20T17:35:36;7.00;;;7.00;;
20906;SDS011;10613;50.966;5.814;2022-11-20T17:39:43;11.00;;;11.00;;
20906;SDS011;10613;50.966;5.814;2022-11-20T17:43:54;3.75;;;3.75;;
20906;SDS011;10613;50.966;5.814;2022-11-20T17:48:01;5.50;;;5.50;;
20906;SDS011;10613;50.966;5.814;2022-11-20T17:52:08;7.00;;;6.25;;
20906;SDS011;10613;50.966;5.814;2022-11-20T17:56:15;6.50;;;6.50;;
20906;SDS011;10613;50.966;5.814;2022-11-20T18:00:41;11.75;;;11.75;;
20906;SDS011;10613;50.966;5.814;2022-11-20T18:04:48;7.00;;;7.00;;
20906;SDS011;10613;50.966;5.814;2022-11-20T18:08:59;11.00;;;11.00;;
20906;SDS011;10613;50.966;5.814;2022-11-20T18:13:07;5.25;;;5.25;;
20906;SDS011;10613;50.966;5.814;2022-11-20T18:17:13;5.00;;;5.00;;
20906;SDS011;10613;50.966;5.814;2022-11-20T18:21:21;7.00;;;7.00;;
20906;SDS011;10613;50.966;5.814;2022-11-20T18:25:27;6.50;;;6.50;;
20906;SDS011;10613;50.966;5.814;2022-11-20T18:29:34;5.00;;;5.00;;
20906;SDS011;10613;50.966;5.814;2022-11-20T18:33:48;8.50;;;8.50;;
20906;SDS011;10613;50.966;5.814;2022-11-20T18:37:59;7.00;;;7.00;;
20906;SDS011;10613;50.966;5.814;2022-11-20T18:42:09;5.25;;;5.25;;
20906;SDS011;10613;50.966;5.814;2022-11-20T18:46:40;7.00;;;7.00;;
20906;SDS011;10613;50.966;5.814;2022-11-20T18:50:47;7.00;;;7.00;;
20906;SDS011;10613;50.966;5.814;2022-11-20T18:55:02;4.50;;;4.50;;
20906;SDS011;10613;50.966;5.814;2022-11-20T18:59:10;7.00;;;7.00;;
20906;SDS011;10613;50.966;5.814;2022-11-20T19:03:18;7.00;;;7.00;;
20906;SDS011;10613;50.966;5.814;2022-11-20T19:07:25;4.75;;;4.75;;
20906;SDS011;10613;50.966;5.814;2022-11-20T19:11:39;5.50;;;5.50;;
20906;SDS011;10613;50.966;5.814;2022-11-20T19:15:53;6.25;;;6.25;;
20906;SDS011;10613;50.966;5.814;2022-11-20T19:20:00;5.00;;;5.00;;
20906;SDS011;10613;50.966;5.814;2022-11-20T19:24:07;7.75;;;7.00;;
20906;SDS011;10613;50.966;5.814;2022-11-20T19:28:14;4.00;;;4.00;;
20906;SDS011;10613;50.966;5.814;2022-11-20T19:32:21;7.25;;;7.25;;
20906;SDS011;10613;50.966;5.814;2022-11-20T19:36:28;7.00;;;7.00;;
20906;SDS011;10613;50.966;5.814;2022-11-20T19:40:36;5.00;;;5.00;;
20906;SDS011;10613;50.966;5.814;2022-11-20T19:44:43;8.00;;;8.00;;
20906;SDS011;10613;50.966;5.814;2022-11-20T19:48:50;7.00;;;7.00;;
20906;SDS011;10613;50.966;5.814;2022-11-20T19:52:57;5.50;;;5.50;;
20906;SDS011;10613;50.966;5.814;2022-11-20T19:57:04;4.00;;;4.00;;
20906;SDS011;10613;50.966;5.814;2022-11-20T20:01:14;7.00;;;5.00;;
20906;SDS011;10613;50.966;5.814;2022-11-20T20:05:23;7.25;;;7.25;;
20906;SDS011;10613;50.966;5.814;2022-11-20T20:09:30;5.00;;;5.00;;
20906;SDS011;10613;50.966;5.814;2022-11-20T20:13:37;7.75;;;7.75;;
20906;SDS011;10613;50.966;5.814;2022-11-20T20:17:44;9.00;;;9.00;;
20906;SDS011;10613;50.966;5.814;2022-11-20T20:21:51;4.50;;;4.50;;
20906;SDS011;10613;50.966;5.814;2022-11-20T20:25:58;5.50;;;5.50;;
20906;SDS011;10613;50.966;5.814;2022-11-20T20:30:06;6.75;;;6.75;;
20906;SDS011;10613;50.966;5.814;2022-11-20T20:34:13;4.25;;;4.25;;
20906;SDS011;10613;50.966;5.814;2022-11-20T20:38:20;5.00;;;5.00;;
20906;SDS011;10613;50.966;5.814;2022-11-20T20:42:28;5.00;;;5.00;;
20906;SDS011;10613;50.966;5.814;2022-11-20T20:46:35;5.00;;;5.00;;
20906;SDS011;10613;50.966;5.814;2022-11-20T20:50:42;7.00;;;7.00;;
20906;SDS011;10613;50.966;5.814;2022-11-20T20:54:49;5.00;;;5.00;;
20906;SDS011;10613;50.966;5.814;2022-11-20T20:58:56;6.00;;;6.00;;
20906;SDS011;10613;50.966;5.814;2022-11-20T21:03:03;4.50;;;4.50;;
20906;SDS011;10613;50.966;5.814;2022-11-20T21:07:10;4.00;;;4.00;;
20906;SDS011;10613;50.966;5.814;2022-11-20T21:11:17;4.75;;;4.75;;
20906;SDS011;10613;50.966;5.814;2022-11-20T21:15:32;7.50;;;7.50;;
20906;SDS011;10613;50.966;5.814;2022-11-20T21:19:39;8.25;;;8.25;;
20906;SDS011;10613;50.966;5.814;2022-11-20T21:23:46;7.75;;;7.75;;
20906;SDS011;10613;50.966;5.814;2022-11-20T21:27:53;6.50;;;6.50;;
20906;SDS011;10613;50.966;5.814;2022-11-20T21:32:00;8.00;;;8.00;;
20906;SDS011;10613;50.966;5.814;2022-11-20T21:36:07;5.50;;;5.50;;
20906;SDS011;10613;50.966;5.814;2022-11-20T21:40:14;4.50;;;4.50;;
20906;SDS011;10613;50.966;5.814;2022-11-20T21:44:21;5.00;;;5.00;;
20906;SDS011;10613;50.966;5.814;2022-11-20T21:48:31;7.00;;;7.00;;
20906;SDS011;10613;50.966;5.814;2022-11-20T21:52:38;4.50;;;4.50;;
20906;SDS011;10613;50.966;5.814;2022-11-20T21:56:45;7.25;;;7.25;;
20906;SDS011;10613;50.966;5.814;2022-11-20T22:00:52;5.00;;;5.00;;
20906;SDS011;10613;50.966;5.814;2022-11-20T22:04:59;5.00;;;5.00;;
20906;SDS011;10613;50.966;5.814;2022-11-20T22:09:06;5.50;;;5.50;;
20906;SDS011;10613;50.966;5.814;2022-11-20T22:13:13;4.25;;;4.25;;
20906;SDS011;10613;50.966;5.814;2022-11-20T22:17:38;4.75;;;4.75;;
20906;SDS011;10613;50.966;5.814;2022-11-20T22:22:03;4.50;;;4.50;;
20906;SDS011;10613;50.966;5.814;2022-11-20T22:26:11;8.00;;;8.00;;
20906;SDS011;10613;50.966;5.814;2022-11-20T22:30:18;4.75;;;4.75;;
20906;SDS011;10613;50.966;5.814;2022-11-20T22:34:25;4.75;;;4.75;;
20906;SDS011;10613;50.966;5.814;2022-11-20T22:38:32;5.50;;;5.50;;
20906;SDS011;10613;50.966;5.814;2022-11-20T22:42:39;5.00;;;5.00;;
20906;SDS011;10613;50.966;5.814;2022-11-20T22:46:46;7.00;;;7.00;;
20906;SDS011;10613;50.966;5.814;2022-11-20T22:50:58;7.25;;;7.25;;
20906;SDS011;10613;50.966;5.814;2022-11-20T22:55:05;4.75;;;4.75;;
20906;SDS011;10613;50.966;5.814;2022-11-20T22:59:12;7.25;;;7.25;;
20906;SDS011;10613;50.966;5.814;2022-11-20T23:03:26;6.00;;;6.00;;
20906;SDS011;10613;50.966;5.814;2022-11-20T23:07:33;5.00;;;5.00;;
20906;SDS011;10613;50.966;5.814;2022-11-20T23:11:40;5.00;;;5.00;;
20906;SDS011;10613;50.966;5.814;2022-11-20T23:15:47;10.25;;;9.50;;
20906;SDS011;10613;50.966;5.814;2022-11-20T23:20:01;7.00;;;7.00;;
20906;SDS011;10613;50.966;5.814;2022-11-20T23:24:08;9.50;;;9.50;;
20906;SDS011;10613;50.966;5.814;2022-11-20T23:28:15;6.50;;;6.50;;
20906;SDS011;10613;50.966;5.814;2022-11-20T23:32:22;4.00;;;4.00;;
20906;SDS011;10613;50.966;5.814;2022-11-20T23:36:29;6.25;;;6.25;;
20906;SDS011;10613;50.966;5.814;2022-11-20T23:40:36;13.75;;;11.50;;
20906;SDS011;10613;50.966;5.814;2022-11-20T23:44:43;7.50;;;7.50;;
20906;SDS011;10613;50.966;5.814;2022-11-20T23:48:50;8.75;;;8.75;;
20906;SDS011;10613;50.966;5.814;2022-11-20T23:52:57;8.25;;;6.50;;
20906;SDS011;10613;50.966;5.814;2022-11-20T23:57:04;6.00;;;6.00;;
